sensor_id;sensor_type;location;lat;lon;timestamp;P1;durP1;ratioP1;P2;durP2;ratioP2
11008;SDS011;5557;51.670;7.788;2023-12-20T00:00:29;20.33;;;14.10;;
11008;SDS011;5557;51.670;7.788;2023-12-20T00:02:56;18.60;;;13.43;;
11008;SDS011;5557;51.670;7.788;2023-12-20T00:05:24;18.70;;;13.97;;
11008;SDS011;5557;51.670;7.788;2023-12-20T00:07:51;19.40;;;14.43;;
11008;SDS011;5557;51.670;7.788;2023-12-20T00:10:18;21.37;;;15.00;;
11008;SDS011;5557;51.670;7.788;2023-12-20T00:12:45;21.93;;;14.70;;
11008;SDS011;5557;51.670;7.788;2023-12-20T00:15:12;23.07;;;15.90;;
11008;SDS011;5557;51.670;7.788;2023-12-20T00:17:39;20.70;;;16.37;;
11008;SDS011;5557;51.670;7.788;2023-12-20T00:20:07;21.13;;;15.30;;
11008;SDS011;5557;51.670;7.788;2023-12-20T00:22:34;23.50;;;16.27;;
11008;SDS011;5557;51.670;7.788;2023-12-20T00:25:01;22.10;;;16.13;;
11008;SDS011;5557;51.670;7.788;2023-12-20T00:27:28;21.57;;;16.07;;
11008;SDS011;5557;51.670;7.788;2023-12-20T00:29:56;21.43;;;15.37;;
11008;SDS011;5557;51.670;7.788;2023-12-20T00:32:23;21.20;;;15.43;;
11008;SDS011;5557;51.670;7.788;2023-12-20T00:34:50;23.23;;;15.73;;
11008;SDS011;5557;51.670;7.788;2023-12-20T00:37:17;23.80;;;15.40;;
11008;SDS011;5557;51.670;7.788;2023-12-20T00:39:44;26.70;;;16.83;;
11008;SDS011;5557;51.670;7.788;2023-12-20T00:42:11;26.37;;;16.73;;
11008;SDS011;5557;51.670;7.788;2023-12-20T00:44:38;25.00;;;16.70;;
11008;SDS011;5557;51.670;7.788;2023-12-20T00:47:05;25.33;;;17.43;;
11008;SDS011;5557;51.670;7.788;2023-12-20T00:49:32;28.10;;;17.60;;
11008;SDS011;5557;51.670;7.788;2023-12-20T00:51:59;29.77;;;19.00;;
11008;SDS011;5557;51.670;7.788;2023-12-20T00:54:26;27.83;;;17.13;;
11008;SDS011;5557;51.670;7.788;2023-12-20T00:56:53;31.00;;;17.23;;
11008;SDS011;5557;51.670;7.788;2023-12-20T00:59:20;24.87;;;16.63;;
11008;SDS011;5557;51.670;7.788;2023-12-20T01:01:47;26.90;;;15.13;;
11008;SDS011;5557;51.670;7.788;2023-12-20T01:04:14;26.53;;;17.27;;
11008;SDS011;5557;51.670;7.788;2023-12-20T01:06:41;29.13;;;16.77;;
11008;SDS011;5557;51.670;7.788;2023-12-20T01:09:08;28.77;;;18.10;;
11008;SDS011;5557;51.670;7.788;2023-12-20T01:11:35;24.63;;;16.73;;
11008;SDS011;5557;51.670;7.788;2023-12-20T01:14:02;29.53;;;18.63;;
11008;SDS011;5557;51.670;7.788;2023-12-20T01:16:29;21.73;;;14.83;;
11008;SDS011;5557;51.670;7.788;2023-12-20T01:18:56;27.97;;;16.37;;
11008;SDS011;5557;51.670;7.788;2023-12-20T01:21:23;25.83;;;16.17;;
11008;SDS011;5557;51.670;7.788;2023-12-20T01:23:50;24.80;;;14.07;;
11008;SDS011;5557;51.670;7.788;2023-12-20T01:26:17;19.97;;;12.30;;
11008;SDS011;5557;51.670;7.788;2023-12-20T01:28:44;21.27;;;13.13;;
11008;SDS011;5557;51.670;7.788;2023-12-20T01:31:11;20.33;;;13.50;;
11008;SDS011;5557;51.670;7.788;2023-12-20T01:33:39;21.77;;;13.27;;
11008;SDS011;5557;51.670;7.788;2023-12-20T01:36:06;19.23;;;13.20;;
11008;SDS011;5557;51.670;7.788;2023-12-20T01:38:33;21.97;;;14.20;;
11008;SDS011;5557;51.670;7.788;2023-12-20T01:40:59;30.80;;;14.60;;
11008;SDS011;5557;51.670;7.788;2023-12-20T01:43:26;23.63;;;15.10;;
11008;SDS011;5557;51.670;7.788;2023-12-20T01:45:57;34.00;;;16.70;;
11008;SDS011;5557;51.670;7.788;2023-12-20T01:48:25;21.67;;;13.97;;
11008;SDS011;5557;51.670;7.788;2023-12-20T01:50:53;22.60;;;14.50;;
11008;SDS011;5557;51.670;7.788;2023-12-20T01:53:21;26.70;;;12.80;;
11008;SDS011;5557;51.670;7.788;2023-12-20T01:55:52;22.13;;;12.90;;
11008;SDS011;5557;51.670;7.788;2023-12-20T01:58:21;23.73;;;12.90;;
11008;SDS011;5557;51.670;7.788;2023-12-20T02:00:49;20.83;;;13.53;;
11008;SDS011;5557;51.670;7.788;2023-12-20T02:03:17;16.73;;;11.97;;
11008;SDS011;5557;51.670;7.788;2023-12-20T02:05:45;18.80;;;11.90;;
11008;SDS011;5557;51.670;7.788;2023-12-20T02:08:13;18.80;;;10.40;;
11008;SDS011;5557;51.670;7.788;2023-12-20T02:10:40;14.80;;;12.00;;
11008;SDS011;5557;51.670;7.788;2023-12-20T02:13:08;18.00;;;10.90;;
11008;SDS011;5557;51.670;7.788;2023-12-20T02:15:35;21.33;;;10.40;;
11008;SDS011;5557;51.670;7.788;2023-12-20T02:18:04;29.93;;;11.53;;
11008;SDS011;5557;51.670;7.788;2023-12-20T02:20:32;19.77;;;10.80;;
11008;SDS011;5557;51.670;7.788;2023-12-20T02:22:59;17.50;;;10.70;;
11008;SDS011;5557;51.670;7.788;2023-12-20T02:25:26;19.20;;;9.90;;
11008;SDS011;5557;51.670;7.788;2023-12-20T02:27:53;28.13;;;8.70;;
11008;SDS011;5557;51.670;7.788;2023-12-20T02:30:20;15.07;;;9.30;;
11008;SDS011;5557;51.670;7.788;2023-12-20T02:32:48;12.57;;;8.70;;
11008;SDS011;5557;51.670;7.788;2023-12-20T02:35:16;21.00;;;8.67;;
11008;SDS011;5557;51.670;7.788;2023-12-20T02:37:43;16.83;;;6.80;;
11008;SDS011;5557;51.670;7.788;2023-12-20T02:40:10;15.67;;;7.77;;
11008;SDS011;5557;51.670;7.788;2023-12-20T02:42:38;10.70;;;6.33;;
11008;SDS011;5557;51.670;7.788;2023-12-20T02:45:05;13.30;;;7.37;;
11008;SDS011;5557;51.670;7.788;2023-12-20T02:47:32;14.73;;;9.13;;
11008;SDS011;5557;51.670;7.788;2023-12-20T02:49:59;14.80;;;7.80;;
11008;SDS011;5557;51.670;7.788;2023-12-20T02:52:27;12.20;;;7.40;;
11008;SDS011;5557;51.670;7.788;2023-12-20T02:54:55;20.90;;;8.47;;
11008;SDS011;5557;51.670;7.788;2023-12-20T02:57:22;21.50;;;9.77;;
11008;SDS011;5557;51.670;7.788;2023-12-20T02:59:49;17.17;;;9.10;;
11008;SDS011;5557;51.670;7.788;2023-12-20T03:02:16;29.23;;;9.40;;
11008;SDS011;5557;51.670;7.788;2023-12-20T03:04:43;21.10;;;10.63;;
11008;SDS011;5557;51.670;7.788;2023-12-20T03:07:10;20.00;;;8.70;;
11008;SDS011;5557;51.670;7.788;2023-12-20T03:09:38;16.07;;;8.40;;
11008;SDS011;5557;51.670;7.788;2023-12-20T03:12:25;17.27;;;9.10;;
11008;SDS011;5557;51.670;7.788;2023-12-20T03:14:52;21.90;;;8.03;;
11008;SDS011;5557;51.670;7.788;2023-12-20T03:17:19;16.77;;;8.10;;
11008;SDS011;5557;51.670;7.788;2023-12-20T03:19:47;24.27;;;10.07;;
11008;SDS011;5557;51.670;7.788;2023-12-20T03:22:13;10.43;;;7.87;;
11008;SDS011;5557;51.670;7.788;2023-12-20T03:24:40;15.73;;;8.77;;
11008;SDS011;5557;51.670;7.788;2023-12-20T03:27:08;23.70;;;8.43;;
11008;SDS011;5557;51.670;7.788;2023-12-20T03:29:34;18.20;;;7.90;;
11008;SDS011;5557;51.670;7.788;2023-12-20T03:32:02;11.80;;;6.53;;
11008;SDS011;5557;51.670;7.788;2023-12-20T03:34:29;17.73;;;7.93;;
11008;SDS011;5557;51.670;7.788;2023-12-20T03:36:56;16.03;;;6.37;;
11008;SDS011;5557;51.670;7.788;2023-12-20T03:39:23;14.93;;;7.20;;
11008;SDS011;5557;51.670;7.788;2023-12-20T03:41:50;22.43;;;7.80;;
11008;SDS011;5557;51.670;7.788;2023-12-20T03:44:18;16.53;;;7.90;;
11008;SDS011;5557;51.670;7.788;2023-12-20T03:46:44;17.00;;;7.50;;
11008;SDS011;5557;51.670;7.788;2023-12-20T03:49:12;18.80;;;7.93;;
11008;SDS011;5557;51.670;7.788;2023-12-20T03:51:38;22.37;;;6.87;;
11008;SDS011;5557;51.670;7.788;2023-12-20T03:54:05;17.93;;;7.13;;
11008;SDS011;5557;51.670;7.788;2023-12-20T03:56:32;23.97;;;7.20;;
11008;SDS011;5557;51.670;7.788;2023-12-20T03:58:59;16.67;;;7.00;;
11008;SDS011;5557;51.670;7.788;2023-12-20T04:01:26;23.13;;;7.20;;
11008;SDS011;5557;51.670;7.788;2023-12-20T04:03:53;17.10;;;6.67;;
11008;SDS011;5557;51.670;7.788;2023-12-20T04:06:20;13.10;;;6.23;;
11008;SDS011;5557;51.670;7.788;2023-12-20T04:08:47;21.70;;;7.20;;
11008;SDS011;5557;51.670;7.788;2023-12-20T04:11:14;13.67;;;6.63;;
11008;SDS011;5557;51.670;7.788;2023-12-20T04:13:41;20.03;;;7.57;;
11008;SDS011;5557;51.670;7.788;2023-12-20T04:16:08;19.07;;;7.67;;
11008;SDS011;5557;51.670;7.788;2023-12-20T04:18:35;21.23;;;7.30;;
11008;SDS011;5557;51.670;7.788;2023-12-20T04:21:03;18.83;;;6.50;;
11008;SDS011;5557;51.670;7.788;2023-12-20T04:23:30;23.53;;;7.03;;
11008;SDS011;5557;51.670;7.788;2023-12-20T04:25:57;18.83;;;7.90;;
11008;SDS011;5557;51.670;7.788;2023-12-20T04:28:24;19.60;;;6.67;;
11008;SDS011;5557;51.670;7.788;2023-12-20T04:30:51;16.83;;;8.67;;
11008;SDS011;5557;51.670;7.788;2023-12-20T04:33:19;23.60;;;9.07;;
11008;SDS011;5557;51.670;7.788;2023-12-20T04:35:46;22.83;;;9.77;;
11008;SDS011;5557;51.670;7.788;2023-12-20T04:38:13;26.23;;;9.90;;
11008;SDS011;5557;51.670;7.788;2023-12-20T04:40:40;24.40;;;10.10;;
11008;SDS011;5557;51.670;7.788;2023-12-20T04:43:07;22.77;;;11.23;;
11008;SDS011;5557;51.670;7.788;2023-12-20T04:45:35;26.40;;;11.23;;
11008;SDS011;5557;51.670;7.788;2023-12-20T04:48:03;20.90;;;11.03;;
11008;SDS011;5557;51.670;7.788;2023-12-20T04:50:30;21.20;;;11.00;;
11008;SDS011;5557;51.670;7.788;2023-12-20T04:52:57;35.57;;;11.80;;
11008;SDS011;5557;51.670;7.788;2023-12-20T04:55:24;24.70;;;11.50;;
11008;SDS011;5557;51.670;7.788;2023-12-20T04:57:51;22.80;;;10.23;;
11008;SDS011;5557;51.670;7.788;2023-12-20T05:00:18;20.60;;;10.90;;
11008;SDS011;5557;51.670;7.788;2023-12-20T05:02:45;21.83;;;10.40;;
11008;SDS011;5557;51.670;7.788;2023-12-20T05:05:12;19.93;;;10.43;;
11008;SDS011;5557;51.670;7.788;2023-12-20T05:07:41;29.67;;;11.57;;
11008;SDS011;5557;51.670;7.788;2023-12-20T05:10:09;26.27;;;11.13;;
11008;SDS011;5557;51.670;7.788;2023-12-20T05:12:36;18.47;;;10.70;;
11008;SDS011;5557;51.670;7.788;2023-12-20T05:15:03;26.03;;;11.37;;
11008;SDS011;5557;51.670;7.788;2023-12-20T05:17:32;23.63;;;11.47;;
11008;SDS011;5557;51.670;7.788;2023-12-20T05:19:59;22.57;;;10.73;;
11008;SDS011;5557;51.670;7.788;2023-12-20T05:22:26;21.50;;;10.80;;
11008;SDS011;5557;51.670;7.788;2023-12-20T05:24:54;19.87;;;10.40;;
11008;SDS011;5557;51.670;7.788;2023-12-20T05:27:21;24.30;;;10.67;;
11008;SDS011;5557;51.670;7.788;2023-12-20T05:29:48;24.37;;;11.20;;
11008;SDS011;5557;51.670;7.788;2023-12-20T05:32:16;24.10;;;10.73;;
11008;SDS011;5557;51.670;7.788;2023-12-20T05:34:44;20.40;;;11.80;;
11008;SDS011;5557;51.670;7.788;2023-12-20T05:37:11;24.30;;;12.27;;
11008;SDS011;5557;51.670;7.788;2023-12-20T05:39:38;33.67;;;13.30;;
11008;SDS011;5557;51.670;7.788;2023-12-20T05:42:05;31.73;;;12.80;;
11008;SDS011;5557;51.670;7.788;2023-12-20T05:44:32;27.83;;;14.07;;
11008;SDS011;5557;51.670;7.788;2023-12-20T05:46:59;23.90;;;12.53;;
11008;SDS011;5557;51.670;7.788;2023-12-20T05:49:26;31.13;;;13.20;;
11008;SDS011;5557;51.670;7.788;2023-12-20T05:51:53;28.87;;;12.90;;
11008;SDS011;5557;51.670;7.788;2023-12-20T05:54:20;18.50;;;11.63;;
11008;SDS011;5557;51.670;7.788;2023-12-20T05:56:48;19.80;;;11.97;;
11008;SDS011;5557;51.670;7.788;2023-12-20T05:59:15;22.60;;;11.80;;
11008;SDS011;5557;51.670;7.788;2023-12-20T06:01:42;20.30;;;11.00;;
11008;SDS011;5557;51.670;7.788;2023-12-20T06:04:08;29.10;;;12.33;;
11008;SDS011;5557;51.670;7.788;2023-12-20T06:06:40;29.93;;;12.60;;
11008;SDS011;5557;51.670;7.788;2023-12-20T06:09:10;25.07;;;11.40;;
11008;SDS011;5557;51.670;7.788;2023-12-20T06:11:37;17.43;;;11.23;;
11008;SDS011;5557;51.670;7.788;2023-12-20T06:14:05;28.43;;;11.50;;
11008;SDS011;5557;51.670;7.788;2023-12-20T06:16:31;25.30;;;12.20;;
11008;SDS011;5557;51.670;7.788;2023-12-20T06:18:58;30.70;;;12.70;;
11008;SDS011;5557;51.670;7.788;2023-12-20T06:21:26;23.83;;;12.77;;
11008;SDS011;5557;51.670;7.788;2023-12-20T06:23:53;22.67;;;11.90;;
11008;SDS011;5557;51.670;7.788;2023-12-20T06:26:19;28.30;;;12.43;;
11008;SDS011;5557;51.670;7.788;2023-12-20T06:28:46;33.80;;;13.07;;
11008;SDS011;5557;51.670;7.788;2023-12-20T06:31:13;21.03;;;13.07;;
11008;SDS011;5557;51.670;7.788;2023-12-20T06:33:42;23.80;;;13.17;;
11008;SDS011;5557;51.670;7.788;2023-12-20T06:36:13;28.50;;;12.37;;
11008;SDS011;5557;51.670;7.788;2023-12-20T06:38:40;25.33;;;14.20;;
11008;SDS011;5557;51.670;7.788;2023-12-20T06:41:08;24.70;;;12.87;;
11008;SDS011;5557;51.670;7.788;2023-12-20T06:43:38;31.00;;;16.00;;
11008;SDS011;5557;51.670;7.788;2023-12-20T06:46:15;27.07;;;12.27;;
11008;SDS011;5557;51.670;7.788;2023-12-20T06:48:44;24.07;;;13.00;;
11008;SDS011;5557;51.670;7.788;2023-12-20T06:51:14;30.00;;;13.70;;
11008;SDS011;5557;51.670;7.788;2023-12-20T06:53:42;25.60;;;12.67;;
11008;SDS011;5557;51.670;7.788;2023-12-20T06:56:10;24.00;;;14.37;;
11008;SDS011;5557;51.670;7.788;2023-12-20T06:58:43;22.20;;;12.80;;
11008;SDS011;5557;51.670;7.788;2023-12-20T07:01:14;27.60;;;12.30;;
11008;SDS011;5557;51.670;7.788;2023-12-20T07:03:42;25.93;;;12.87;;
11008;SDS011;5557;51.670;7.788;2023-12-20T07:06:09;19.60;;;11.53;;
11008;SDS011;5557;51.670;7.788;2023-12-20T07:08:36;25.73;;;14.40;;
11008;SDS011;5557;51.670;7.788;2023-12-20T07:11:03;27.33;;;13.77;;
11008;SDS011;5557;51.670;7.788;2023-12-20T07:13:30;26.50;;;14.60;;
11008;SDS011;5557;51.670;7.788;2023-12-20T07:15:57;22.50;;;13.10;;
11008;SDS011;5557;51.670;7.788;2023-12-20T07:18:24;38.00;;;16.63;;
11008;SDS011;5557;51.670;7.788;2023-12-20T07:20:51;38.83;;;15.53;;
11008;SDS011;5557;51.670;7.788;2023-12-20T07:23:20;32.93;;;14.10;;
11008;SDS011;5557;51.670;7.788;2023-12-20T07:25:47;24.00;;;14.43;;
11008;SDS011;5557;51.670;7.788;2023-12-20T07:28:14;20.20;;;12.13;;
11008;SDS011;5557;51.670;7.788;2023-12-20T07:30:41;22.30;;;13.40;;
11008;SDS011;5557;51.670;7.788;2023-12-20T07:33:13;19.67;;;12.47;;
11008;SDS011;5557;51.670;7.788;2023-12-20T07:35:40;34.13;;;11.00;;
11008;SDS011;5557;51.670;7.788;2023-12-20T07:38:08;23.03;;;12.87;;
11008;SDS011;5557;51.670;7.788;2023-12-20T07:40:35;22.30;;;11.60;;
11008;SDS011;5557;51.670;7.788;2023-12-20T07:43:02;24.10;;;12.27;;
11008;SDS011;5557;51.670;7.788;2023-12-20T07:45:29;30.67;;;11.50;;
11008;SDS011;5557;51.670;7.788;2023-12-20T07:47:56;32.73;;;11.77;;
11008;SDS011;5557;51.670;7.788;2023-12-20T07:50:23;17.53;;;10.67;;
11008;SDS011;5557;51.670;7.788;2023-12-20T07:52:50;17.30;;;10.10;;
11008;SDS011;5557;51.670;7.788;2023-12-20T07:55:17;26.97;;;11.00;;
11008;SDS011;5557;51.670;7.788;2023-12-20T07:57:44;27.40;;;12.13;;
11008;SDS011;5557;51.670;7.788;2023-12-20T08:00:11;17.07;;;10.60;;
11008;SDS011;5557;51.670;7.788;2023-12-20T08:02:39;31.73;;;10.60;;
11008;SDS011;5557;51.670;7.788;2023-12-20T08:05:06;17.47;;;9.10;;
11008;SDS011;5557;51.670;7.788;2023-12-20T08:07:33;18.40;;;9.10;;
11008;SDS011;5557;51.670;7.788;2023-12-20T08:10:00;20.47;;;10.80;;
11008;SDS011;5557;51.670;7.788;2023-12-20T08:12:27;22.90;;;10.57;;
11008;SDS011;5557;51.670;7.788;2023-12-20T08:14:54;26.70;;;11.67;;
11008;SDS011;5557;51.670;7.788;2023-12-20T08:17:23;18.33;;;9.87;;
11008;SDS011;5557;51.670;7.788;2023-12-20T08:19:50;28.40;;;10.37;;
11008;SDS011;5557;51.670;7.788;2023-12-20T08:22:18;17.90;;;10.17;;
11008;SDS011;5557;51.670;7.788;2023-12-20T08:24:45;17.27;;;10.23;;
11008;SDS011;5557;51.670;7.788;2023-12-20T08:27:12;23.17;;;10.37;;
11008;SDS011;5557;51.670;7.788;2023-12-20T08:29:39;19.13;;;10.17;;
11008;SDS011;5557;51.670;7.788;2023-12-20T08:32:06;18.07;;;9.60;;
11008;SDS011;5557;51.670;7.788;2023-12-20T08:34:33;22.07;;;8.90;;
11008;SDS011;5557;51.670;7.788;2023-12-20T08:37:00;20.17;;;9.63;;
11008;SDS011;5557;51.670;7.788;2023-12-20T08:39:28;22.93;;;9.87;;
11008;SDS011;5557;51.670;7.788;2023-12-20T08:41:56;22.83;;;11.00;;
11008;SDS011;5557;51.670;7.788;2023-12-20T08:44:23;18.67;;;10.13;;
11008;SDS011;5557;51.670;7.788;2023-12-20T08:46:50;23.30;;;8.33;;
11008;SDS011;5557;51.670;7.788;2023-12-20T08:49:17;17.60;;;9.63;;
11008;SDS011;5557;51.670;7.788;2023-12-20T08:51:44;23.93;;;9.50;;
11008;SDS011;5557;51.670;7.788;2023-12-20T08:54:11;19.30;;;9.57;;
11008;SDS011;5557;51.670;7.788;2023-12-20T08:56:39;19.30;;;9.27;;
11008;SDS011;5557;51.670;7.788;2023-12-20T08:59:06;20.93;;;10.07;;
11008;SDS011;5557;51.670;7.788;2023-12-20T09:01:34;18.33;;;8.40;;
11008;SDS011;5557;51.670;7.788;2023-12-20T09:04:01;35.13;;;10.33;;
11008;SDS011;5557;51.670;7.788;2023-12-20T09:06:28;25.83;;;11.90;;
11008;SDS011;5557;51.670;7.788;2023-12-20T09:08:55;19.43;;;9.30;;
11008;SDS011;5557;51.670;7.788;2023-12-20T09:11:22;23.27;;;9.70;;
11008;SDS011;5557;51.670;7.788;2023-12-20T09:13:49;24.67;;;9.13;;
11008;SDS011;5557;51.670;7.788;2023-12-20T09:16:16;29.17;;;9.27;;
11008;SDS011;5557;51.670;7.788;2023-12-20T09:18:44;16.53;;;9.30;;
11008;SDS011;5557;51.670;7.788;2023-12-20T09:21:11;25.80;;;9.97;;
11008;SDS011;5557;51.670;7.788;2023-12-20T09:23:38;24.00;;;9.73;;
11008;SDS011;5557;51.670;7.788;2023-12-20T09:26:06;16.93;;;7.87;;
11008;SDS011;5557;51.670;7.788;2023-12-20T09:28:33;24.90;;;10.00;;
11008;SDS011;5557;51.670;7.788;2023-12-20T09:31:05;29.50;;;9.43;;
11008;SDS011;5557;51.670;7.788;2023-12-20T09:33:33;22.57;;;9.20;;
11008;SDS011;5557;51.670;7.788;2023-12-20T09:36:01;15.80;;;8.53;;
11008;SDS011;5557;51.670;7.788;2023-12-20T09:38:28;27.70;;;8.97;;
11008;SDS011;5557;51.670;7.788;2023-12-20T09:40:55;18.43;;;8.70;;
11008;SDS011;5557;51.670;7.788;2023-12-20T09:43:23;20.63;;;9.17;;
11008;SDS011;5557;51.670;7.788;2023-12-20T09:45:53;23.73;;;9.60;;
11008;SDS011;5557;51.670;7.788;2023-12-20T09:48:20;24.23;;;9.20;;
11008;SDS011;5557;51.670;7.788;2023-12-20T09:50:48;17.93;;;8.97;;
11008;SDS011;5557;51.670;7.788;2023-12-20T09:53:19;15.87;;;7.93;;
11008;SDS011;5557;51.670;7.788;2023-12-20T09:55:49;31.00;;;9.70;;
11008;SDS011;5557;51.670;7.788;2023-12-20T09:58:17;26.50;;;10.00;;
11008;SDS011;5557;51.670;7.788;2023-12-20T10:00:44;16.10;;;8.60;;
11008;SDS011;5557;51.670;7.788;2023-12-20T10:03:12;14.70;;;8.50;;
11008;SDS011;5557;51.670;7.788;2023-12-20T10:05:44;18.10;;;8.73;;
11008;SDS011;5557;51.670;7.788;2023-12-20T10:08:12;23.40;;;9.13;;
11008;SDS011;5557;51.670;7.788;2023-12-20T10:10:39;16.47;;;8.53;;
11008;SDS011;5557;51.670;7.788;2023-12-20T10:13:13;25.07;;;8.87;;
11008;SDS011;5557;51.670;7.788;2023-12-20T10:15:41;17.90;;;8.37;;
11008;SDS011;5557;51.670;7.788;2023-12-20T10:18:09;22.63;;;8.60;;
11008;SDS011;5557;51.670;7.788;2023-12-20T10:20:37;17.63;;;8.80;;
11008;SDS011;5557;51.670;7.788;2023-12-20T10:23:04;23.03;;;8.27;;
11008;SDS011;5557;51.670;7.788;2023-12-20T10:25:31;22.73;;;9.20;;
11008;SDS011;5557;51.670;7.788;2023-12-20T10:28:15;14.60;;;8.40;;
11008;SDS011;5557;51.670;7.788;2023-12-20T10:30:45;25.30;;;8.90;;
11008;SDS011;5557;51.670;7.788;2023-12-20T10:33:13;20.20;;;8.20;;
11008;SDS011;5557;51.670;7.788;2023-12-20T10:35:49;16.70;;;7.80;;
11008;SDS011;5557;51.670;7.788;2023-12-20T10:38:17;25.10;;;7.97;;
11008;SDS011;5557;51.670;7.788;2023-12-20T10:40:47;16.23;;;8.30;;
11008;SDS011;5557;51.670;7.788;2023-12-20T10:43:17;24.90;;;9.03;;
11008;SDS011;5557;51.670;7.788;2023-12-20T10:45:45;25.70;;;8.53;;
11008;SDS011;5557;51.670;7.788;2023-12-20T10:48:12;22.93;;;9.00;;
11008;SDS011;5557;51.670;7.788;2023-12-20T10:50:39;19.80;;;8.37;;
11008;SDS011;5557;51.670;7.788;2023-12-20T10:53:07;20.43;;;10.00;;
11008;SDS011;5557;51.670;7.788;2023-12-20T10:55:34;17.60;;;8.67;;
11008;SDS011;5557;51.670;7.788;2023-12-20T10:58:06;23.17;;;8.60;;
11008;SDS011;5557;51.670;7.788;2023-12-20T11:00:40;20.80;;;9.70;;
11008;SDS011;5557;51.670;7.788;2023-12-20T11:03:10;18.20;;;8.57;;
11008;SDS011;5557;51.670;7.788;2023-12-20T11:05:53;26.43;;;8.97;;
11008;SDS011;5557;51.670;7.788;2023-12-20T11:11:48;24.63;;;8.17;;
11008;SDS011;5557;51.670;7.788;2023-12-20T11:14:22;18.90;;;7.77;;
11008;SDS011;5557;51.670;7.788;2023-12-20T11:17:04;13.07;;;8.60;;
11008;SDS011;5557;51.670;7.788;2023-12-20T11:20:03;25.73;;;8.97;;
11008;SDS011;5557;51.670;7.788;2023-12-20T11:22:31;14.27;;;8.10;;
11008;SDS011;5557;51.670;7.788;2023-12-20T11:25:07;20.20;;;9.27;;
11008;SDS011;5557;51.670;7.788;2023-12-20T11:27:41;21.30;;;8.50;;
11008;SDS011;5557;51.670;7.788;2023-12-20T11:30:15;19.97;;;9.10;;
11008;SDS011;5557;51.670;7.788;2023-12-20T11:32:44;18.87;;;8.27;;
11008;SDS011;5557;51.670;7.788;2023-12-20T11:35:17;17.20;;;8.00;;
11008;SDS011;5557;51.670;7.788;2023-12-20T11:37:47;15.77;;;9.03;;
11008;SDS011;5557;51.670;7.788;2023-12-20T11:40:16;19.90;;;8.67;;
11008;SDS011;5557;51.670;7.788;2023-12-20T11:42:49;16.13;;;8.50;;
11008;SDS011;5557;51.670;7.788;2023-12-20T11:45:18;16.50;;;8.83;;
11008;SDS011;5557;51.670;7.788;2023-12-20T11:47:49;17.63;;;8.57;;
11008;SDS011;5557;51.670;7.788;2023-12-20T11:50:17;19.80;;;10.13;;
11008;SDS011;5557;51.670;7.788;2023-12-20T11:52:45;18.27;;;8.37;;
11008;SDS011;5557;51.670;7.788;2023-12-20T11:55:13;23.83;;;9.50;;
11008;SDS011;5557;51.670;7.788;2023-12-20T11:57:40;16.83;;;8.70;;
11008;SDS011;5557;51.670;7.788;2023-12-20T12:00:08;16.73;;;8.00;;
11008;SDS011;5557;51.670;7.788;2023-12-20T12:02:39;23.60;;;8.40;;
11008;SDS011;5557;51.670;7.788;2023-12-20T12:05:07;14.23;;;7.20;;
11008;SDS011;5557;51.670;7.788;2023-12-20T12:07:35;19.97;;;7.30;;
11008;SDS011;5557;51.670;7.788;2023-12-20T12:10:04;18.23;;;7.33;;
11008;SDS011;5557;51.670;7.788;2023-12-20T12:12:32;16.63;;;6.50;;
11008;SDS011;5557;51.670;7.788;2023-12-20T12:14:59;9.73;;;6.70;;
11008;SDS011;5557;51.670;7.788;2023-12-20T12:17:28;11.43;;;5.83;;
11008;SDS011;5557;51.670;7.788;2023-12-20T12:20:02;12.17;;;6.20;;
11008;SDS011;5557;51.670;7.788;2023-12-20T12:22:33;12.87;;;5.30;;
11008;SDS011;5557;51.670;7.788;2023-12-20T12:25:09;11.27;;;4.93;;
11008;SDS011;5557;51.670;7.788;2023-12-20T12:27:40;8.07;;;5.30;;
11008;SDS011;5557;51.670;7.788;2023-12-20T12:30:09;13.57;;;5.70;;
11008;SDS011;5557;51.670;7.788;2023-12-20T12:32:40;10.03;;;5.93;;
11008;SDS011;5557;51.670;7.788;2023-12-20T12:35:08;11.63;;;6.00;;
11008;SDS011;5557;51.670;7.788;2023-12-20T12:37:37;7.27;;;5.63;;
11008;SDS011;5557;51.670;7.788;2023-12-20T12:40:11;12.03;;;6.40;;
11008;SDS011;5557;51.670;7.788;2023-12-20T12:42:44;15.23;;;7.37;;
11008;SDS011;5557;51.670;7.788;2023-12-20T12:45:12;11.30;;;6.73;;
11008;SDS011;5557;51.670;7.788;2023-12-20T12:47:45;18.20;;;8.67;;
11008;SDS011;5557;51.670;7.788;2023-12-20T12:50:13;11.93;;;7.67;;
11008;SDS011;5557;51.670;7.788;2023-12-20T12:52:40;16.40;;;7.57;;
11008;SDS011;5557;51.670;7.788;2023-12-20T12:55:08;16.90;;;8.70;;
11008;SDS011;5557;51.670;7.788;2023-12-20T12:57:35;13.90;;;8.43;;
11008;SDS011;5557;51.670;7.788;2023-12-20T13:00:02;15.23;;;8.10;;
11008;SDS011;5557;51.670;7.788;2023-12-20T13:02:29;20.90;;;9.53;;
11008;SDS011;5557;51.670;7.788;2023-12-20T13:04:57;21.90;;;9.30;;
11008;SDS011;5557;51.670;7.788;2023-12-20T13:07:25;12.40;;;8.60;;
11008;SDS011;5557;51.670;7.788;2023-12-20T13:09:53;22.50;;;7.73;;
11008;SDS011;5557;51.670;7.788;2023-12-20T13:12:22;14.83;;;9.00;;
11008;SDS011;5557;51.670;7.788;2023-12-20T13:14:50;14.30;;;8.63;;
11008;SDS011;5557;51.670;7.788;2023-12-20T13:17:17;14.13;;;8.50;;
11008;SDS011;5557;51.670;7.788;2023-12-20T13:19:44;14.03;;;8.73;;
11008;SDS011;5557;51.670;7.788;2023-12-20T13:22:14;12.97;;;7.83;;
11008;SDS011;5557;51.670;7.788;2023-12-20T13:24:41;20.30;;;8.50;;
11008;SDS011;5557;51.670;7.788;2023-12-20T13:27:10;17.93;;;8.50;;
11008;SDS011;5557;51.670;7.788;2023-12-20T13:29:37;26.27;;;8.83;;
11008;SDS011;5557;51.670;7.788;2023-12-20T13:32:06;19.60;;;9.33;;
11008;SDS011;5557;51.670;7.788;2023-12-20T13:34:34;21.07;;;9.40;;
11008;SDS011;5557;51.670;7.788;2023-12-20T13:37:04;12.83;;;9.63;;
11008;SDS011;5557;51.670;7.788;2023-12-20T13:39:33;12.67;;;8.47;;
11008;SDS011;5557;51.670;7.788;2023-12-20T13:42:02;14.50;;;8.97;;
11008;SDS011;5557;51.670;7.788;2023-12-20T13:44:30;15.23;;;8.80;;
11008;SDS011;5557;51.670;7.788;2023-12-20T13:46:57;19.20;;;8.60;;
11008;SDS011;5557;51.670;7.788;2023-12-20T13:49:27;30.90;;;9.67;;
11008;SDS011;5557;51.670;7.788;2023-12-20T13:51:55;12.63;;;8.13;;
11008;SDS011;5557;51.670;7.788;2023-12-20T13:54:24;17.50;;;9.30;;
11008;SDS011;5557;51.670;7.788;2023-12-20T13:56:51;14.43;;;8.33;;
11008;SDS011;5557;51.670;7.788;2023-12-20T13:59:37;23.63;;;8.30;;
11008;SDS011;5557;51.670;7.788;2023-12-20T14:02:05;16.93;;;8.80;;
11008;SDS011;5557;51.670;7.788;2023-12-20T14:04:32;18.03;;;8.83;;
11008;SDS011;5557;51.670;7.788;2023-12-20T14:07:08;19.03;;;9.90;;
11008;SDS011;5557;51.670;7.788;2023-12-20T14:09:39;15.83;;;8.60;;
11008;SDS011;5557;51.670;7.788;2023-12-20T14:12:13;14.53;;;8.30;;
11008;SDS011;5557;51.670;7.788;2023-12-20T14:14:42;13.20;;;9.30;;
11008;SDS011;5557;51.670;7.788;2023-12-20T14:17:11;15.23;;;9.00;;
11008;SDS011;5557;51.670;7.788;2023-12-20T14:19:40;15.53;;;8.83;;
11008;SDS011;5557;51.670;7.788;2023-12-20T14:22:07;22.87;;;9.60;;
11008;SDS011;5557;51.670;7.788;2023-12-20T14:24:34;16.10;;;9.87;;
11008;SDS011;5557;51.670;7.788;2023-12-20T14:27:02;9.93;;;8.80;;
11008;SDS011;5557;51.670;7.788;2023-12-20T14:29:30;16.00;;;9.30;;
11008;SDS011;5557;51.670;7.788;2023-12-20T14:31:59;12.33;;;9.50;;
11008;SDS011;5557;51.670;7.788;2023-12-20T14:34:29;12.80;;;9.10;;
11008;SDS011;5557;51.670;7.788;2023-12-20T14:36:59;20.83;;;10.27;;
11008;SDS011;5557;51.670;7.788;2023-12-20T14:39:27;20.67;;;11.13;;
11008;SDS011;5557;51.670;7.788;2023-12-20T14:41:54;12.97;;;9.30;;
11008;SDS011;5557;51.670;7.788;2023-12-20T14:44:21;17.00;;;10.40;;
11008;SDS011;5557;51.670;7.788;2023-12-20T14:46:50;16.20;;;11.07;;
11008;SDS011;5557;51.670;7.788;2023-12-20T14:49:20;16.37;;;9.30;;